Time;durP1;ratioP1;P1;durP2;ratioP2;P2;SDS_P1;SDS_P2;PMS_P1;PMS_P2;Temp;Humidity;BMP_temperature;BMP_pressure;BME280_temperature;BME280_humidity;BME280_pressure;Samples;Min_cycle;Max_cycle;Signal;HPM_P1;HPM_P2
2023/01/10 00:00:21;;;;;;;0.60;0.50;;;5.30;99.90;;;;;;4991627;28;20466;-73
2023/01/10 00:02:47;;;;;;;0.70;0.60;;;5.30;99.90;;;;;;4991125;28;20438;-72
2023/01/10 00:05:12;;;;;;;0.60;0.50;;;5.30;99.90;;;;;;4991533;28;20863;-73
2023/01/10 00:07:38;;;;;;;1.03;0.50;;;5.30;99.90;;;;;;4991678;28;20239;-72
2023/01/10 00:10:04;;;;;;;1.43;0.50;;;5.30;99.90;;;;;;4994780;28;20209;-73
2023/01/10 00:15:13;;;;;;;1.33;0.80;;;5.30;99.90;;;;;;4994895;28;20206;-72
2023/01/10 00:17:39;;;;;;;0.80;0.60;;;5.30;99.90;;;;;;4994719;28;20417;-72
2023/01/10 00:20:05;;;;;;;8.20;0.60;;;5.30;99.90;;;;;;4994712;28;20557;-73
2023/01/10 00:22:30;;;;;;;2.50;0.60;;;5.30;99.90;;;;;;4994325;28;20253;-73
2023/01/10 00:24:56;;;;;;;1.17;0.60;;;5.30;99.90;;;;;;4994590;28;20497;-73
2023/01/10 00:27:21;;;;;;;0.80;0.80;;;5.30;99.90;;;;;;4994579;28;20264;-72
2023/01/10 00:29:50;;;;;;;1.57;0.63;;;5.30;99.90;;;;;;4977005;28;20209;-73
2023/01/10 00:32:15;;;;;;;0.70;0.60;;;5.30;99.90;;;;;;4994166;28;20199;-73
2023/01/10 00:34:41;;;;;;;0.70;0.60;;;5.30;99.90;;;;;;4994452;28;20947;-73
2023/01/10 00:37:06;;;;;;;3.00;0.70;;;5.40;99.90;;;;;;4994542;28;20176;-73
2023/01/10 00:39:32;;;;;;;1.30;0.80;;;5.40;99.90;;;;;;4994206;28;20176;-72
2023/01/10 00:44:42;;;;;;;1.10;0.90;;;5.40;99.90;;;;;;4994236;28;20190;-73
2023/01/10 00:47:07;;;;;;;1.07;0.80;;;5.40;99.90;;;;;;4994246;28;20410;-73
2023/01/10 00:49:32;;;;;;;1.70;0.90;;;5.40;99.90;;;;;;4993956;28;20206;-72
2023/01/10 00:51:58;;;;;;;2.60;1.20;;;5.40;99.90;;;;;;4993813;28;20580;-72
2023/01/10 00:54:24;;;;;;;2.10;1.50;;;5.40;99.90;;;;;;4994106;28;20177;-72
2023/01/10 00:56:50;;;;;;;3.07;1.03;;;5.40;99.90;;;;;;4994254;28;20180;-72
2023/01/10 00:59:16;;;;;;;1.27;0.80;;;5.40;99.90;;;;;;4994023;28;20424;-72
2023/01/10 01:01:41;;;;;;;8.20;1.20;;;5.40;99.90;;;;;;4993527;28;20257;-72
2023/01/10 01:04:07;;;;;;;1.60;1.03;;;5.30;99.90;;;;;;4994039;28;20188;-72
2023/01/10 01:06:32;;;;;;;2.47;1.40;;;5.40;99.90;;;;;;4993633;28;20557;-72
2023/01/10 01:08:58;;;;;;;3.60;1.30;;;5.40;99.90;;;;;;4993834;28;20220;-72
2023/01/10 01:11:24;;;;;;;6.10;1.37;;;5.40;99.90;;;;;;4993250;28;20216;-72
2023/01/10 01:13:49;;;;;;;2.97;1.33;;;5.40;99.90;;;;;;4993977;28;20182;-73
2023/01/10 01:16:16;;;;;;;1.47;1.03;;;5.40;99.90;;;;;;4993777;28;20419;-73
2023/01/10 01:18:42;;;;;;;1.67;1.10;;;5.40;99.90;;;;;;4993768;28;20184;-73
2023/01/10 01:21:07;;;;;;;1.47;1.00;;;5.40;99.90;;;;;;4992656;28;20436;-73
2023/01/10 01:23:34;;;;;;;2.20;1.37;;;5.40;99.90;;;;;;4976091;28;20318;-73
2023/01/10 01:26:00;;;;;;;2.40;0.90;;;5.50;99.90;;;;;;4993507;28;20192;-73
2023/01/10 01:28:25;;;;;;;2.60;1.37;;;5.50;99.90;;;;;;4993367;28;20416;-72
2023/01/10 01:30:51;;;;;;;1.83;1.03;;;5.50;99.90;;;;;;4993192;28;20261;-72
2023/01/10 01:33:18;;;;;;;1.60;0.80;;;5.50;99.90;;;;;;4993270;28;20182;-72
2023/01/10 01:35:45;;;;;;;5.33;0.90;;;5.50;99.90;;;;;;4993393;28;20193;-73
2023/01/10 01:38:11;;;;;;;1.10;0.60;;;5.50;99.90;;;;;;4993346;28;20456;-72
2023/01/10 01:40:38;;;;;;;1.80;0.90;;;5.50;99.90;;;;;;4993178;28;20834;-72
2023/01/10 01:43:04;;;;;;;1.73;0.90;;;5.50;99.90;;;;;;4993072;28;20434;-73
2023/01/10 01:45:36;;;;;;;1.27;0.70;;;5.50;99.90;;;;;;4993053;28;20427;-72
2023/01/10 01:48:17;;;;;;;2.30;0.90;;;5.50;99.90;;;;;;4993046;28;20426;-73
2023/01/10 01:50:53;;;;;;;1.50;0.80;;;5.50;99.90;;;;;;4992780;28;20451;-72
2023/01/10 01:53:30;;;;;;;1.10;0.67;;;5.50;99.90;;;;;;4992803;28;20411;-73
2023/01/10 01:56:02;;;;;;;1.10;0.70;;;5.50;99.90;;;;;;4993007;28;20481;-73
2023/01/10 01:59:11;;;;;;;1.07;0.60;;;5.50;99.90;;;;;;4992885;28;20828;-72
2023/01/10 03:32:18;;;;;;;3.27;2.40;;;4.80;99.90;;;;;;5398476;23;20285;-74
2023/01/10 03:34:44;;;;;;;5.80;2.20;;;4.70;99.90;;;;;;5018534;28;20415;-74
2023/01/10 03:37:22;;;;;;;7.17;2.67;;;4.70;99.90;;;;;;5011472;28;20453;-73
2023/01/10 03:40:06;;;;;;;9.43;2.90;;;4.70;99.90;;;;;;5012043;28;20837;-73
2023/01/10 03:45:33;;;;;;;7.63;2.03;;;4.70;99.90;;;;;;5013702;28;20775;-74
2023/01/10 03:48:01;;;;;;;5.90;2.07;;;4.70;99.90;;;;;;4988195;28;20435;-74
2023/01/10 03:50:29;;;;;;;9.07;2.60;;;4.70;99.90;;;;;;4995502;28;20466;-74
2023/01/10 03:52:56;;;;;;;3.33;1.97;;;4.70;99.90;;;;;;4995479;28;20434;-73
2023/01/10 03:55:25;;;;;;;7.50;2.40;;;4.70;99.90;;;;;;4996784;28;20422;-74
2023/01/10 03:57:51;;;;;;;5.23;2.43;;;4.70;99.90;;;;;;4995371;28;20463;-74
2023/01/10 04:00:17;;;;;;;4.23;1.67;;;4.70;99.90;;;;;;4995202;28;20420;-74
2023/01/10 04:02:43;;;;;;;3.97;1.93;;;4.80;99.90;;;;;;4994921;28;20205;-74
2023/01/10 04:05:08;;;;;;;6.10;2.10;;;4.70;99.90;;;;;;4995575;28;20421;-73
2023/01/10 04:07:34;;;;;;;6.60;1.63;;;4.70;99.90;;;;;;4995086;28;20183;-73
2023/01/10 04:10:00;;;;;;;2.23;1.50;;;4.70;99.90;;;;;;4995070;28;20214;-74
2023/01/10 04:12:26;;;;;;;6.13;1.70;;;4.70;99.90;;;;;;4994556;28;20608;-74
2023/01/10 04:14:51;;;;;;;5.17;1.53;;;4.70;99.90;;;;;;4995029;28;20164;-74
2023/01/10 04:17:17;;;;;;;6.03;1.50;;;4.60;99.90;;;;;;4994891;28;20502;-72
2023/01/10 04:19:43;;;;;;;5.23;2.00;;;4.60;99.90;;;;;;4977386;28;20374;-72
2023/01/10 04:22:10;;;;;;;5.53;2.07;;;4.60;99.90;;;;;;4994857;28;20206;-71
2023/01/10 04:24:35;;;;;;;3.97;1.87;;;4.60;99.90;;;;;;4994509;28;20188;-71
2023/01/10 04:27:01;;;;;;;6.40;2.30;;;4.60;99.90;;;;;;4994760;28;20441;-72
2023/01/10 04:29:27;;;;;;;5.03;2.40;;;4.50;99.90;;;;;;4994363;28;20451;-71
2023/01/10 04:31:52;;;;;;;3.47;2.20;;;4.40;99.90;;;;;;4994292;28;20287;-72
2023/01/10 04:34:21;;;;;;;3.03;1.90;;;4.50;99.90;;;;;;4994505;28;20172;-72
2023/01/10 04:36:48;;;;;;;7.70;2.40;;;4.40;99.90;;;;;;4978275;28;20219;-72
2023/01/10 04:39:13;;;;;;;4.30;2.30;;;4.40;99.90;;;;;;4975497;28;20422;-72
2023/01/10 04:41:39;;;;;;;16.83;3.77;;;4.40;99.90;;;;;;4974436;28;20438;-72
2023/01/10 04:44:05;;;;;;;6.60;3.83;;;4.40;99.90;;;;;;4974964;28;20169;-72
2023/01/10 04:46:31;;;;;;;7.27;2.73;;;4.40;99.90;;;;;;4974673;28;20179;-72
2023/01/10 04:48:57;;;;;;;6.60;2.83;;;4.30;99.90;;;;;;4974695;28;20454;-71
2023/01/10 04:51:24;;;;;;;7.13;2.97;;;4.30;99.90;;;;;;4974253;28;20478;-72
2023/01/10 04:53:49;;;;;;;9.07;3.20;;;4.30;99.90;;;;;;4974327;28;20447;-71
2023/01/10 04:56:20;;;;;;;6.63;2.40;;;4.30;99.90;;;;;;4973909;28;20901;-72
2023/01/10 04:58:47;;;;;;;9.30;3.00;;;4.20;99.90;;;;;;4974674;28;20172;-72
2023/01/10 05:01:16;;;;;;;4.60;2.60;;;4.20;99.90;;;;;;4974111;28;20450;-71
2023/01/10 05:03:41;;;;;;;9.90;2.03;;;4.20;99.90;;;;;;4974379;28;20784;-72
2023/01/10 05:06:07;;;;;;;5.03;2.00;;;4.20;99.90;;;;;;4974431;28;20432;-72
2023/01/10 05:08:33;;;;;;;9.50;2.70;;;4.10;99.90;;;;;;4974494;28;20179;-72
2023/01/10 05:10:59;;;;;;;8.03;2.50;;;4.20;99.90;;;;;;4974261;28;20992;-72
2023/01/10 05:13:25;;;;;;;7.00;2.20;;;4.20;99.90;;;;;;4974208;28;20837;-72
2023/01/10 05:15:55;;;;;;;9.30;3.10;;;4.20;99.90;;;;;;4974230;28;20175;-71
2023/01/10 05:18:20;;;;;;;9.73;2.53;;;4.30;99.90;;;;;;4974153;28;20412;-71
2023/01/10 05:20:46;;;;;;;11.33;3.07;;;4.30;99.90;;;;;;4974058;28;20423;-71
2023/01/10 05:23:11;;;;;;;12.90;3.23;;;4.40;99.90;;;;;;4974277;28;20183;-72
2023/01/10 05:25:37;;;;;;;14.03;3.30;;;4.40;99.90;;;;;;4974190;28;20183;-71
2023/01/10 05:28:03;;;;;;;9.73;3.23;;;4.50;99.90;;;;;;4974232;28;20663;-72
2023/01/10 05:30:28;;;;;;;10.80;2.40;;;4.50;99.90;;;;;;4973705;28;20235;-71
2023/01/10 05:32:54;;;;;;;8.53;2.20;;;4.60;99.90;;;;;;4973663;28;20748;-71
2023/01/10 05:35:19;;;;;;;9.63;2.17;;;4.60;99.90;;;;;;4973872;28;20179;-71
2023/01/10 05:37:44;;;;;;;11.63;3.00;;;4.70;99.90;;;;;;4973844;28;20179;-71
2023/01/10 05:40:11;;;;;;;14.47;2.53;;;4.70;99.90;;;;;;4973828;28;20267;-71
2023/01/10 05:42:36;;;;;;;6.80;1.63;;;4.70;99.90;;;;;;4973292;28;20621;-71
2023/01/10 05:45:02;;;;;;;9.97;2.90;;;4.70;99.90;;;;;;4973883;28;20423;-72
2023/01/10 05:47:27;;;;;;;14.17;3.00;;;4.70;99.90;;;;;;4973491;28;20257;-71
2023/01/10 05:49:53;;;;;;;10.23;2.23;;;4.80;99.90;;;;;;4973624;28;20242;-72
2023/01/10 05:52:18;;;;;;;7.43;2.03;;;4.80;99.90;;;;;;4973208;28;20234;-71
2023/01/10 05:54:44;;;;;;;14.17;4.10;;;4.80;99.90;;;;;;4973609;28;20183;-72
2023/01/10 05:57:09;;;;;;;11.70;3.37;;;4.80;99.90;;;;;;4973678;28;20185;-72
2023/01/10 05:59:35;;;;;;;16.87;2.57;;;4.70;99.90;;;;;;4989332;28;20552;-72
2023/01/10 06:02:00;;;;;;;10.27;4.30;;;4.80;99.90;;;;;;4992574;28;20700;-71
2023/01/10 06:04:26;;;;;;;18.20;2.80;;;4.80;99.90;;;;;;4992710;28;20176;-70
2023/01/10 06:06:51;;;;;;;6.60;1.73;;;4.80;99.90;;;;;;4992510;28;20192;-72
2023/01/10 06:09:17;;;;;;;10.67;2.10;;;4.80;99.90;;;;;;4992639;28;20209;-72
2023/01/10 06:11:42;;;;;;;12.00;1.97;;;4.80;99.90;;;;;;4992401;28;20202;-72
2023/01/10 06:14:09;;;;;;;12.63;2.60;;;4.90;99.90;;;;;;4992999;28;20180;-71
2023/01/10 06:16:34;;;;;;;10.57;2.33;;;4.90;99.90;;;;;;4992424;28;20197;-71
2023/01/10 06:19:00;;;;;;;8.30;1.70;;;4.90;99.90;;;;;;4992930;28;20449;-71
2023/01/10 06:21:25;;;;;;;9.43;1.60;;;4.90;99.90;;;;;;4990350;28;20223;-71
2023/01/10 06:23:51;;;;;;;11.83;2.87;;;4.90;99.90;;;;;;4989770;28;20184;-71
2023/01/10 06:26:17;;;;;;;7.60;1.80;;;4.80;99.90;;;;;;4989737;28;20560;-71
2023/01/10 06:28:43;;;;;;;8.40;1.80;;;4.90;99.90;;;;;;4990055;28;20250;-71
2023/01/10 06:31:09;;;;;;;17.03;3.93;;;4.90;99.90;;;;;;4991453;28;20861;-71
2023/01/10 06:33:34;;;;;;;8.03;1.63;;;4.90;99.90;;;;;;4991369;28;20183;-71
2023/01/10 06:36:00;;;;;;;13.13;2.20;;;4.90;99.90;;;;;;4992315;28;20177;-71
2023/01/10 06:38:26;;;;;;;7.90;1.57;;;4.90;99.90;;;;;;4992021;28;20264;-72
2023/01/10 06:40:52;;;;;;;7.10;2.13;;;5.00;99.90;;;;;;4991337;28;20515;-72
2023/01/10 06:43:17;;;;;;;11.33;1.90;;;4.90;99.90;;;;;;4991958;28;20178;-73
2023/01/10 06:45:42;;;;;;;9.73;2.20;;;4.90;99.90;;;;;;4992218;28;20526;-73
2023/01/10 06:48:08;;;;;;;5.07;1.50;;;4.90;99.90;;;;;;4992243;28;20178;-72
2023/01/10 06:50:33;;;;;;;4.80;1.23;;;4.90;99.90;;;;;;4991611;28;20210;-71
2023/01/10 06:53:01;;;;;;;6.67;1.73;;;4.90;99.90;;;;;;4992318;28;20175;-72
2023/01/10 06:55:28;;;;;;;5.30;1.30;;;4.90;99.90;;;;;;4992128;28;20184;-72
2023/01/10 06:57:55;;;;;;;5.27;1.43;;;4.90;99.90;;;;;;4992238;28;20407;-72
2023/01/10 07:00:21;;;;;;;10.50;2.30;;;4.90;99.90;;;;;;4991973;28;20948;-72
2023/01/10 07:02:47;;;;;;;3.67;1.33;;;4.90;99.90;;;;;;4974281;28;20439;-71
2023/01/10 07:05:12;;;;;;;11.17;2.37;;;4.90;99.90;;;;;;4992073;28;20769;-71
2023/01/10 07:07:38;;;;;;;8.43;2.30;;;5.00;99.90;;;;;;4991857;28;20188;-71
2023/01/10 07:10:04;;;;;;;10.37;2.20;;;5.00;99.90;;;;;;4992072;28;20215;-71
2023/01/10 07:12:29;;;;;;;15.20;2.07;;;5.00;99.90;;;;;;4991402;28;20199;-71
2023/01/10 07:14:55;;;;;;;7.73;2.57;;;5.10;99.90;;;;;;4992009;28;20765;-71
2023/01/10 07:17:20;;;;;;;8.20;1.53;;;5.10;99.90;;;;;;4991973;28;20167;-71
2023/01/10 07:19:46;;;;;;;9.47;1.60;;;5.10;99.90;;;;;;4996161;28;20574;-71
2023/01/10 07:22:11;;;;;;;5.77;1.53;;;5.10;99.90;;;;;;4995808;28;20227;-71
2023/01/10 07:24:36;;;;;;;28.90;3.20;;;5.10;99.90;;;;;;4995938;28;20185;-71
2023/01/10 07:27:02;;;;;;;5.90;1.43;;;5.10;99.90;;;;;;4996092;28;20187;-71
2023/01/10 07:29:27;;;;;;;8.83;1.80;;;5.10;99.90;;;;;;4995693;28;20208;-71
2023/01/10 07:31:53;;;;;;;13.07;1.67;;;5.10;99.90;;;;;;4995484;28;20211;-71
2023/01/10 07:34:18;;;;;;;5.50;1.23;;;5.10;99.90;;;;;;4996192;28;20277;-71
2023/01/10 07:36:44;;;;;;;17.63;2.10;;;5.10;99.90;;;;;;4995914;28;20231;-71
2023/01/10 07:39:10;;;;;;;9.57;2.20;;;5.10;99.90;;;;;;4995947;28;20699;-71
2023/01/10 07:41:35;;;;;;;6.83;1.50;;;5.10;99.90;;;;;;4995773;28;20233;-72
2023/01/10 07:44:01;;;;;;;7.70;1.70;;;5.20;99.90;;;;;;4995841;28;20259;-71
2023/01/10 07:46:26;;;;;;;10.17;1.60;;;5.20;99.90;;;;;;4995501;28;20189;-71
2023/01/10 07:48:52;;;;;;;6.37;1.87;;;5.20;99.90;;;;;;4996876;28;20185;-71
2023/01/10 07:51:17;;;;;;;11.20;2.30;;;5.20;99.90;;;;;;4995012;28;20700;-70
2023/01/10 07:53:43;;;;;;;11.07;1.43;;;5.20;99.90;;;;;;4995688;28;20593;-71
2023/01/10 07:56:08;;;;;;;12.30;2.10;;;5.20;99.90;;;;;;4995948;28;20582;-71
2023/01/10 07:58:34;;;;;;;8.80;2.17;;;5.20;99.90;;;;;;4995196;28;20322;-71
2023/01/10 08:01:02;;;;;;;10.97;3.20;;;5.30;99.90;;;;;;4995220;28;20610;-71
2023/01/10 08:03:32;;;;;;;5.80;1.73;;;5.30;99.90;;;;;;4994833;28;20181;-71
2023/01/10 08:06:02;;;;;;;5.57;1.37;;;5.30;99.90;;;;;;4977847;28;20427;-72
2023/01/10 08:08:29;;;;;;;7.00;1.90;;;5.30;99.90;;;;;;4994953;28;20416;-72
2023/01/10 08:10:54;;;;;;;14.07;1.97;;;5.30;99.90;;;;;;4994856;28;20492;-71
2023/01/10 08:13:20;;;;;;;11.30;1.70;;;5.30;99.90;;;;;;4994387;28;20422;-72
2023/01/10 08:15:48;;;;;;;7.67;1.93;;;5.40;99.90;;;;;;4994925;28;20256;-71
2023/01/10 08:18:14;;;;;;;6.00;1.63;;;5.40;99.90;;;;;;4994812;28;20554;-71
2023/01/10 08:20:40;;;;;;;4.83;1.70;;;5.40;99.90;;;;;;4994570;28;20411;-71
2023/01/10 08:23:05;;;;;;;5.83;1.60;;;5.50;99.90;;;;;;4994399;28;20844;-72
2023/01/10 08:25:31;;;;;;;8.00;1.43;;;5.50;99.90;;;;;;4994593;28;20255;-71
2023/01/10 08:27:57;;;;;;;9.20;1.93;;;5.50;99.90;;;;;;4994531;28;20170;-71
2023/01/10 08:30:22;;;;;;;14.90;2.07;;;5.50;99.90;;;;;;4994134;28;20204;-71
2023/01/10 08:32:48;;;;;;;5.87;1.43;;;5.50;99.90;;;;;;4994339;28;20201;-71
2023/01/10 08:35:13;;;;;;;9.07;2.33;;;5.60;99.90;;;;;;4994593;28;20680;-71
2023/01/10 08:37:39;;;;;;;10.63;1.97;;;5.60;99.90;;;;;;4994342;28;20253;-71
2023/01/10 08:40:05;;;;;;;5.57;1.80;;;5.60;99.90;;;;;;4994332;28;20191;-70
2023/01/10 08:42:31;;;;;;;6.30;1.50;;;5.70;99.90;;;;;;4993951;28;20202;-70
2023/01/10 08:44:56;;;;;;;5.60;2.20;;;5.70;99.90;;;;;;4994285;28;20422;-71
2023/01/10 08:47:22;;;;;;;7.30;2.20;;;5.80;99.90;;;;;;4994092;28;20547;-71
2023/01/10 08:49:48;;;;;;;9.00;2.47;;;5.80;99.90;;;;;;4994164;28;20288;-71
2023/01/10 08:52:14;;;;;;;22.63;2.87;;;5.90;99.90;;;;;;4993980;28;20762;-71
2023/01/10 08:54:40;;;;;;;7.30;2.30;;;5.90;99.90;;;;;;4994031;28;20459;-71
2023/01/10 08:57:05;;;;;;;10.00;2.07;;;6.00;99.90;;;;;;4994020;28;20917;-72
2023/01/10 08:59:31;;;;;;;10.53;1.93;;;5.90;99.90;;;;;;4993850;28;20233;-72
2023/01/10 09:01:58;;;;;;;15.80;2.60;;;6.00;99.90;;;;;;4993792;28;20197;-72
2023/01/10 09:04:25;;;;;;;5.73;1.53;;;6.00;99.90;;;;;;4993783;28;20174;-72
2023/01/10 09:06:50;;;;;;;10.20;2.40;;;6.00;99.90;;;;;;4993936;28;20814;-71
2023/01/10 09:09:16;;;;;;;9.57;2.07;;;6.00;99.90;;;;;;4993607;28;20463;-71
2023/01/10 09:11:41;;;;;;;13.27;2.13;;;6.00;99.90;;;;;;4993509;28;20198;-71
2023/01/10 09:14:07;;;;;;;7.70;1.70;;;6.00;99.90;;;;;;4994120;28;20594;-71
2023/01/10 09:16:32;;;;;;;6.67;1.50;;;6.10;99.90;;;;;;4993558;28;20186;-71
2023/01/10 09:18:58;;;;;;;6.17;1.43;;;6.10;99.90;;;;;;4993811;28;20562;-71
2023/01/10 09:21:24;;;;;;;3.57;1.20;;;6.10;99.90;;;;;;4993155;28;20229;-71
2023/01/10 09:23:49;;;;;;;12.67;1.37;;;6.10;99.90;;;;;;4993745;28;20179;-71
2023/01/10 09:26:15;;;;;;;12.40;1.83;;;6.10;99.90;;;;;;4993525;28;20177;-71
2023/01/10 09:28:40;;;;;;;7.97;1.30;;;6.20;99.90;;;;;;4993536;28;20257;-71
2023/01/10 09:31:07;;;;;;;12.60;1.77;;;6.20;99.90;;;;;;4992956;28;20709;-70
2023/01/10 09:33:33;;;;;;;8.77;2.20;;;6.20;99.90;;;;;;4993422;28;20177;-71
2023/01/10 09:35:59;;;;;;;7.20;1.90;;;6.30;99.90;;;;;;4993933;28;20425;-71
2023/01/10 09:38:25;;;;;;;6.03;1.40;;;6.20;99.90;;;;;;4993447;28;20781;-71
2023/01/10 09:41:15;;;;;;;6.67;1.90;;;6.20;99.90;;;;;;4992636;28;20181;-71
2023/01/10 09:44:15;;;;;;;6.80;1.73;;;6.30;99.90;;;;;;4993706;28;20549;-71
2023/01/10 09:46:47;;;;;;;4.60;1.20;;;6.30;99.90;;;;;;4993141;28;20468;-71
2023/01/10 09:49:22;;;;;;;8.37;2.00;;;6.40;99.90;;;;;;4993168;28;20414;-71
2023/01/10 09:51:50;;;;;;;9.90;1.93;;;6.40;99.90;;;;;;4992861;28;20453;-71
2023/01/10 09:54:32;;;;;;;11.83;2.00;;;6.50;99.90;;;;;;4993054;28;20723;-71
2023/01/10 09:56:59;;;;;;;7.10;1.87;;;6.60;99.90;;;;;;4992917;28;20399;-71
2023/01/10 09:59:40;;;;;;;11.60;1.87;;;6.60;99.90;;;;;;4993167;28;20666;-71
2023/01/10 10:02:26;;;;;;;5.57;1.93;;;6.50;99.90;;;;;;4992876;28;20428;-71
2023/01/10 10:05:01;;;;;;;5.10;1.30;;;6.60;99.90;;;;;;4992961;28;20421;-71
2023/01/10 10:07:26;;;;;;;4.10;1.37;;;6.70;99.90;;;;;;4992723;28;20500;-70
2023/01/10 10:09:52;;;;;;;8.77;1.50;;;6.70;99.90;;;;;;4993083;28;20563;-71
2023/01/10 10:12:32;;;;;;;5.70;1.37;;;6.70;99.90;;;;;;4992580;28;20716;-71
2023/01/10 10:15:25;;;;;;;3.57;1.33;;;6.70;99.90;;;;;;4993123;28;20177;-71
2023/01/10 10:18:06;;;;;;;7.63;1.70;;;6.80;99.90;;;;;;4992672;28;20428;-71
2023/01/10 10:20:56;;;;;;;7.37;2.10;;;7.10;99.90;;;;;;4992578;28;20416;-70
2023/01/10 10:23:45;;;;;;;4.33;1.40;;;7.10;99.90;;;;;;4992262;28;20425;-71
2023/01/10 10:26:27;;;;;;;4.97;1.97;;;7.20;99.90;;;;;;4992508;28;20472;-72
2023/01/10 10:29:19;;;;;;;9.17;1.50;;;7.10;99.90;;;;;;4992605;28;20492;-72
2023/01/10 10:32:11;;;;;;;5.13;1.70;;;7.20;99.90;;;;;;4991939;28;20521;-71
2023/01/10 10:34:45;;;;;;;10.43;1.93;;;7.10;99.90;;;;;;4992418;28;20496;-71
2023/01/10 10:37:32;;;;;;;9.10;1.77;;;7.10;99.90;;;;;;4992610;28;20409;-71
2023/01/10 10:40:14;;;;;;;7.13;1.37;;;7.10;99.90;;;;;;4992652;28;20467;-70
2023/01/10 10:42:46;;;;;;;11.03;2.00;;;7.20;99.90;;;;;;4991960;28;20921;-71
2023/01/10 10:46:06;;;;;;;3.97;1.20;;;7.20;99.90;;;;;;4992484;28;20452;-71
2023/01/10 10:48:49;;;;;;;8.17;2.70;;;7.40;99.90;;;;;;4912838;29;20528;-71
2023/01/10 10:51:37;;;;;;;9.40;1.33;;;7.70;99.90;;;;;;4967008;28;20481;-70
2023/01/10 10:54:05;;;;;;;3.93;1.20;;;7.80;99.90;;;;;;4972720;28;20418;-71
2023/01/10 10:56:31;;;;;;;3.87;1.33;;;7.80;99.90;;;;;;4972563;28;20424;-71
2023/01/10 10:58:58;;;;;;;6.40;1.70;;;7.80;99.90;;;;;;4972750;28;20428;-71
2023/01/10 11:01:25;;;;;;;5.30;1.50;;;7.70;99.90;;;;;;4972129;28;20193;-71
2023/01/10 11:03:57;;;;;;;9.00;2.40;;;7.50;99.90;;;;;;4972497;28;20515;-71
2023/01/10 11:06:25;;;;;;;10.70;2.63;;;7.40;99.90;;;;;;4972502;28;20428;-71
2023/01/10 11:08:56;;;;;;;9.90;1.53;;;7.40;99.90;;;;;;4972674;28;20421;-71
2023/01/10 11:11:28;;;;;;;13.50;1.77;;;7.40;99.90;;;;;;4971991;28;20983;-70
2023/01/10 11:13:59;;;;;;;11.47;1.97;;;7.30;99.90;;;;;;4972676;28;20897;-71
2023/01/10 11:16:38;;;;;;;4.90;1.23;;;7.20;99.90;;;;;;4972207;28;20854;-71
2023/01/10 11:19:21;;;;;;;11.93;1.90;;;7.10;99.90;;;;;;4972760;28;20411;-70
2023/01/10 11:22:01;;;;;;;6.23;1.37;;;7.30;99.90;;;;;;4972190;28;20437;-71
2023/01/10 11:24:41;;;;;;;6.23;1.50;;;7.40;99.90;;;;;;4972910;28;20425;-71
2023/01/10 11:27:20;;;;;;;5.40;1.60;;;7.70;99.90;;;;;;4973197;28;20503;-71
2023/01/10 11:29:49;;;;;;;7.10;1.13;;;7.90;99.90;;;;;;4972902;28;20456;-71
2023/01/10 11:32:22;;;;;;;6.00;1.50;;;8.00;99.90;;;;;;4972235;28;20452;-71
2023/01/10 11:35:19;;;;;;;3.57;1.07;;;8.00;99.90;;;;;;4972946;28;20428;-72
2023/01/10 11:38:17;;;;;;;9.87;1.60;;;8.00;99.90;;;;;;4972550;28;20415;-72
2023/01/10 11:41:02;;;;;;;5.33;1.37;;;7.90;99.90;;;;;;4972719;28;20412;-71
2023/01/10 11:43:40;;;;;;;3.40;0.97;;;7.80;99.90;;;;;;4972716;28;20500;-71
2023/01/10 11:46:16;;;;;;;4.90;1.03;;;7.70;99.90;;;;;;4972127;28;20412;-70
2023/01/10 11:48:59;;;;;;;7.50;1.17;;;7.70;99.90;;;;;;4972455;28;20456;-71
2023/01/10 11:51:30;;;;;;;7.33;1.00;;;7.70;99.90;;;;;;4971847;28;20518;-70
2023/01/10 11:54:05;;;;;;;10.57;1.37;;;7.80;99.90;;;;;;4972262;28;20421;-71
2023/01/10 11:56:33;;;;;;;7.60;1.73;;;7.80;99.90;;;;;;4972485;28;20910;-71
2023/01/10 11:59:08;;;;;;;10.00;1.47;;;7.80;99.90;;;;;;4972032;28;20418;-71
2023/01/10 12:01:42;;;;;;;9.90;1.47;;;7.80;99.90;;;;;;4972128;28;20449;-70
2023/01/10 12:04:14;;;;;;;5.63;1.33;;;7.90;99.90;;;;;;4973827;28;20425;-70
2023/01/10 12:06:44;;;;;;;3.53;1.30;;;7.90;99.90;;;;;;4975377;28;20398;-70
2023/01/10 12:09:54;;;;;;;6.33;1.27;;;8.00;99.90;;;;;;4977816;28;20429;-70
2023/01/10 12:12:24;;;;;;;6.77;1.90;;;8.00;99.90;;;;;;4991477;28;20495;-70
2023/01/10 12:14:51;;;;;;;11.50;1.60;;;8.20;99.90;;;;;;4995172;28;20484;-70
2023/01/10 12:17:30;;;;;;;3.53;1.27;;;8.30;99.90;;;;;;4994882;28;20412;-70
2023/01/10 12:19:59;;;;;;;6.10;1.00;;;8.50;99.90;;;;;;4995115;28;20826;-70
2023/01/10 12:22:50;;;;;;;20.80;1.80;;;8.70;99.90;;;;;;4994172;28;20434;-71
2023/01/10 12:25:21;;;;;;;5.93;1.30;;;8.80;99.90;;;;;;4994646;28;20429;-69
2023/01/10 12:27:50;;;;;;;8.30;1.53;;;8.90;99.90;;;;;;4994352;28;20432;-70
2023/01/10 12:30:22;;;;;;;6.60;1.30;;;8.80;99.90;;;;;;4994329;28;20554;-69
2023/01/10 12:32:51;;;;;;;9.47;1.50;;;8.60;99.90;;;;;;4993633;28;20463;-70
2023/01/10 12:35:23;;;;;;;6.23;1.20;;;8.50;99.90;;;;;;4987347;28;20415;-70
2023/01/10 12:38:06;;;;;;;5.97;1.20;;;8.60;99.90;;;;;;4993990;28;20503;-71
2023/01/10 12:40:57;;;;;;;7.47;1.40;;;8.60;99.90;;;;;;5007337;28;20407;-71
2023/01/10 12:46:39;;;;;;;8.00;0.97;;;8.40;99.90;;;;;;4991144;28;20430;-70
2023/01/10 12:49:15;;;;;;;3.00;1.00;;;8.30;99.90;;;;;;4994494;28;20775;-69
2023/01/10 12:51:43;;;;;;;4.50;0.87;;;8.30;99.90;;;;;;4993986;28;20565;-69
2023/01/10 12:54:16;;;;;;;5.20;1.03;;;8.10;99.90;;;;;;4994042;28;20512;-70
2023/01/10 12:56:43;;;;;;;7.77;1.20;;;8.20;99.90;;;;;;5000895;28;20428;-70
2023/01/10 12:59:23;;;;;;;6.00;0.93;;;8.00;99.90;;;;;;5013411;28;20535;-70
2023/01/10 13:01:53;;;;;;;8.37;1.47;;;8.00;99.90;;;;;;5013428;28;20422;-70
2023/01/10 13:04:23;;;;;;;4.80;1.63;;;7.80;99.90;;;;;;5014169;28;20937;-70
2023/01/10 13:06:50;;;;;;;5.70;1.17;;;7.80;99.90;;;;;;4996824;28;20419;-69
2023/01/10 13:09:21;;;;;;;7.50;1.50;;;7.70;99.90;;;;;;5013406;28;20492;-70
2023/01/10 13:12:10;;;;;;;6.40;1.77;;;7.60;99.90;;;;;;5013478;28;20441;-70
2023/01/10 13:14:47;;;;;;;6.90;1.70;;;7.50;99.90;;;;;;5013042;28;20410;-70
2023/01/10 13:17:26;;;;;;;8.90;1.10;;;7.50;99.90;;;;;;5012840;28;20400;-70
2023/01/10 13:20:23;;;;;;;6.83;1.47;;;7.70;99.90;;;;;;5013266;28;20403;-69
2023/01/10 13:22:58;;;;;;;2.97;1.20;;;7.70;99.90;;;;;;5012962;28;20422;-70
2023/01/10 13:25:27;;;;;;;7.97;1.00;;;7.60;99.90;;;;;;5013092;28;20395;-70
2023/01/10 13:28:06;;;;;;;5.07;1.10;;;7.60;99.90;;;;;;5013090;28;20785;-70
2023/01/10 13:30:39;;;;;;;5.63;1.10;;;7.60;99.90;;;;;;5012741;28;20465;-70
2023/01/10 13:33:20;;;;;;;5.77;1.00;;;7.70;99.90;;;;;;5012680;28;20928;-71
2023/01/10 13:35:48;;;;;;;5.27;0.80;;;7.70;99.90;;;;;;5012835;28;20468;-70
2023/01/10 13:38:21;;;;;;;9.07;1.00;;;7.70;99.90;;;;;;5012833;28;20412;-70
2023/01/10 13:41:02;;;;;;;4.00;1.17;;;7.90;99.90;;;;;;5010880;28;20419;-69
2023/01/10 13:43:35;;;;;;;9.70;1.23;;;7.90;99.90;;;;;;5000094;28;20415;-70
2023/01/10 13:46:16;;;;;;;3.33;0.97;;;7.90;99.90;;;;;;5012703;28;20505;-70
2023/01/10 13:49:02;;;;;;;6.40;1.10;;;7.80;99.90;;;;;;4995026;28;20422;-70
2023/01/10 13:51:29;;;;;;;3.43;0.90;;;7.90;99.90;;;;;;4998270;28;20490;-70
2023/01/10 13:54:01;;;;;;;4.53;1.13;;;7.90;99.90;;;;;;5012467;28;21029;-70
2023/01/10 13:56:37;;;;;;;5.40;1.17;;;7.90;99.90;;;;;;5012237;28;20449;-70
2023/01/10 14:02:40;;;;;;;10.00;1.70;;;7.80;99.90;;;;;;5012443;28;20807;-70
2023/01/10 14:05:18;;;;;;;8.90;1.27;;;7.80;99.90;;;;;;5012287;28;20471;-70
2023/01/10 14:07:49;;;;;;;6.53;1.20;;;7.80;99.90;;;;;;5012271;28;20415;-70
2023/01/10 14:10:22;;;;;;;5.23;1.40;;;7.80;99.90;;;;;;5012260;28;20595;-70
2023/01/10 14:12:52;;;;;;;3.10;0.90;;;7.80;99.90;;;;;;5003429;28;20435;-70
2023/01/10 14:15:40;;;;;;;9.77;1.50;;;7.70;99.90;;;;;;4992697;28;20921;-70
2023/01/10 14:18:18;;;;;;;1.80;0.93;;;7.80;99.90;;;;;;4992531;28;20458;-70
2023/01/10 14:20:54;;;;;;;6.77;1.30;;;7.80;99.90;;;;;;4992694;28;20765;-71
2023/01/10 14:23:26;;;;;;;6.90;0.90;;;7.80;99.90;;;;;;4992153;28;20413;-71
2023/01/10 14:25:54;;;;;;;5.43;1.10;;;7.80;99.90;;;;;;4992528;28;20849;-70
2023/01/10 14:28:32;;;;;;;11.27;0.97;;;7.80;99.90;;;;;;4991976;28;20808;-71
2023/01/10 14:31:00;;;;;;;9.13;1.57;;;7.80;99.90;;;;;;4991380;28;20820;-70
2023/01/10 14:33:27;;;;;;;6.37;1.00;;;7.80;99.90;;;;;;4991769;28;20454;-70
2023/01/10 14:35:58;;;;;;;3.70;1.07;;;7.70;99.90;;;;;;4992108;28;20479;-71
2023/01/10 14:38:27;;;;;;;2.57;1.07;;;7.60;99.90;;;;;;4992028;28;20436;-71
2023/01/10 14:41:11;;;;;;;6.30;1.63;;;7.60;99.90;;;;;;4992220;28;20798;-71
2023/01/10 14:43:53;;;;;;;9.50;1.40;;;7.40;99.90;;;;;;4991999;28;20415;-71
2023/01/10 14:46:37;;;;;;;5.93;1.20;;;7.30;99.90;;;;;;5002530;28;20437;-70
2023/01/10 14:49:19;;;;;;;9.30;1.30;;;7.20;99.90;;;;;;5011734;28;20451;-70
2023/01/10 14:51:49;;;;;;;6.27;1.57;;;7.20;99.90;;;;;;5011344;28;20460;-71
2023/01/10 14:54:16;;;;;;;6.23;1.43;;;7.10;99.90;;;;;;5011525;28;20936;-70
2023/01/10 14:56:47;;;;;;;4.43;1.17;;;7.10;99.90;;;;;;5011550;28;20506;-70